Terminal Aerodrome Forecast
Issued by NWS Pittsburgh, PA

Home | Current Version | Previous Version | Text Only | Print | Product List | Glossary On
Versions: 1 2 3 4 5 6 7 8 9 10 11 12 13 14 15 16 17 18 19 20 21 22 23 24 25 26 27 28
000
FTUS41 KPBZ 131904 AAA
TAFPIT
TAF AMD
KPIT 131904Z 1319/1424 23009G16KT P6SM -SHSN OVC030
     FM132100 20007KT 1SM -SN OVC020
     FM140700 24008KT 2SM -SHSN OVC015
     FM141300 32007KT P6SM BKN020
     FM141800 33007KT P6SM BKN035=

USA.gov is the U.S. government's official web portal to all federal, state and local government web resources and services.